Time;durP1;ratioP1;P1;durP2;ratioP2;P2;SDS_P1;SDS_P2;PMS_P1;PMS_P2;Temp;Humidity;BMP_temperature;BMP_pressure;BME280_temperature;BME280_humidity;BME280_pressure;Samples;Min_cycle;Max_cycle;Signal;HPM_P1;HPM_P2
2023/10/13 00:04:46;;;;;;;;;;;;;;;;;;5037758;28;4584;-60
2023/10/13 00:10:14;;;;;;;;;;;;;;;;;;5037231;28;5063;-60
2023/10/13 00:12:39;;;;;;;;;;;;;;;;;;5035367;28;4803;-60
2023/10/13 00:15:07;;;;;;;;;;;;;;;;;;5027264;28;5024;-60
2023/10/13 00:20:35;;;;;;;;;;;;;;;;;;5033474;28;4921;-60
2023/10/13 00:29:09;;;;;;;;;;;;;;;;;;5022817;28;4767;-60
2023/10/13 00:31:38;;;;;;;;;;;;;;;;;;5056228;28;4811;-60
2023/10/13 00:34:11;;;;;;;;;;;;;;;;;;5031974;28;4425;-60
2023/10/13 00:39:56;;;;;;;;;;;;;;;;;;5036505;28;5171;-60
2023/10/13 00:48:33;;;;;;;;;;;;;;;;;;5036566;28;5066;-60
2023/10/13 00:51:12;;;;;;;;;;;;;;;;;;5034450;28;4633;-60
2023/10/13 00:53:39;;;;;;;;;;;;;;;;;;5036016;28;5106;-60
2023/10/13 00:56:09;;;;;;;;;;;;;;;;;;5028121;28;3342;-61
2023/10/13 00:58:34;;;;;;;;;;;;;;;;;;5025407;28;4960;-60
2023/10/13 01:01:17;;;;;;;;;;;;;;;;;;5029548;28;5226;-61
2023/10/13 01:03:44;;;;;;;;;;;;;;;;;;5006146;28;5123;-60
2023/10/13 01:06:12;;;;;;;;;;;;;;;;;;5032267;28;5096;-61
2023/10/13 01:08:38;;;;;;;;;;;;;;;;;;5030239;28;5019;-61
2023/10/13 01:11:06;;;;;;;;;;;;;;;;;;5019105;28;1343;-61
2023/10/13 01:13:35;;;;;;;;;;;;;;;;;;5015277;28;4405;-60
2023/10/13 01:16:01;;;;;;;;;;;;;;;;;;5035299;28;5080;-60
2023/10/13 01:21:29;;;;;;;;;;;;;;;;;;5027433;28;4936;-61
2023/10/13 01:24:31;;;;;;;;;;;;;;;;;;5032809;28;5037;-60
2023/10/13 01:26:56;;;;;;;;;;;;;;;;;;5023032;28;5098;-60
2023/10/13 01:29:28;;;;;;;;;;;;;;;;;;5016849;28;4465;-60
2023/10/13 01:31:54;;;;;;;;;;;;;;;;;;5031292;28;1060;-60
2023/10/13 01:34:55;;;;;;;;;;;;;;;;;;5032042;28;4853;-60
2023/10/13 01:37:20;;;;;;;;;;;;;;;;;;5024389;28;4615;-60
2023/10/13 01:39:49;;;;;;;;;;;;;;;;;;5022272;28;4932;-60
2023/10/13 01:42:21;;;;;;;;;;;;;;;;;;5023645;28;5085;-60
2023/10/13 01:44:47;;;;;;;;;;;;;;;;;;5018951;28;5106;-60
2023/10/13 01:47:12;;;;;;;;;;;;;;;;;;5015783;28;1270;-61
2023/10/13 01:49:47;;;;;;;;;;;;;;;;;;5029528;28;4966;-60
2023/10/13 01:52:15;;;;;;;;;;;;;;;;;;5028261;28;5252;-61
2023/10/13 02:00:47;;;;;;;;;;;;;;;;;;5015445;28;4660;-60
2023/10/13 02:03:31;;;;;;;;;;;;;;;;;;5013984;28;4702;-60
2023/10/13 02:08:57;;;;;;;;;;;;;;;;;;5017996;28;5521;-60
2023/10/13 02:11:22;;;;;;;;;;;;;;;;;;5028339;28;5046;-60
2023/10/13 02:13:51;;;;;;;;;;;;;;;;;;5017972;28;2695;-60
2023/10/13 02:25:52;;;;;;;;;;;;;;;;;;5017244;28;4540;-60
2023/10/13 02:28:21;;;;;;;;;;;;;;;;;;5030505;28;5136;-61
2023/10/13 02:30:50;;;;;;;;;;;;;;;;;;5032890;28;4662;-60
2023/10/13 02:33:20;;;;;;;;;;;;;;;;;;5027515;28;5584;-61
2023/10/13 02:36:22;;;;;;;;;;;;;;;;;;5033829;28;4947;-60
2023/10/13 02:41:50;;;;;;;;;;;;;;;;;;5026175;28;4977;-60
2023/10/13 02:47:19;;;;;;;;;;;;;;;;;;5019645;28;5200;-60
2023/10/13 02:49:47;;;;;;;;;;;;;;;;;;5011161;28;2935;-61
2023/10/13 02:52:12;;;;;;;;;;;;;;;;;;5031352;28;4823;-60
2023/10/13 02:54:47;;;;;;;;;;;;;;;;;;5032803;28;4733;-60
2023/10/13 03:00:16;;;;;;;;;;;;;;;;;;5034145;28;4946;-60
2023/10/13 03:02:45;;;;;;;;;;;;;;;;;;5033508;28;4997;-60
2023/10/13 03:05:13;;;;;;;;;;;;;;;;;;5034545;28;1918;-60
2023/10/13 03:10:47;;;;;;;;;;;;;;;;;;5033564;28;4583;-60
2023/10/13 03:16:19;;;;;;;;;;;;;;;;;;5033897;28;4541;-60
2023/10/13 03:18:56;;;;;;;;;;;;;;;;;;5033400;28;4875;-60
2023/10/13 03:21:31;;;;;;;;;;;;;;;;;;5033867;28;4998;-60
2023/10/13 03:23:58;;;;;;;;;;;;;;;;;;5033704;28;4912;-60
2023/10/13 03:26:23;;;;;;;;;;;;;;;;;;5016006;28;5135;-60
2023/10/13 03:28:52;;;;;;;;;;;;;;;;;;5034367;28;1116;-60
2023/10/13 03:31:22;;;;;;;;;;;;;;;;;;5033250;28;4863;-61
2023/10/13 03:33:49;;;;;;;;;;;;;;;;;;5033678;28;4419;-60
2023/10/13 03:36:34;;;;;;;;;;;;;;;;;;5033599;28;4991;-60
2023/10/13 03:39:18;;;;;;;;;;;;;;;;;;5033884;28;4463;-60
2023/10/13 03:41:45;;;;;;;;;;;;;;;;;;5027808;28;4887;-60
2023/10/13 03:44:17;;;;;;;;;;;;;;;;;;5037967;28;1965;-60
2023/10/13 03:49:45;;;;;;;;;;;;;;;;;;5038071;28;4735;-60
2023/10/13 03:55:17;;;;;;;;;;;;;;;;;;5037136;28;4937;-60
2023/10/13 03:57:43;;;;;;;;;;;;;;;;;;5036761;28;5007;-60
2023/10/13 04:00:12;;;;;;;;;;;;;;;;;;5052631;28;5068;-60
2023/10/13 04:02:38;;;;;;;;;;;;;;;;;;5036966;28;4599;-60
2023/10/13 04:09:37;;;;;;;;;;;;;;;;;;5034353;28;4588;-60
2023/10/13 04:14:23;;;;;;;;;;;;;;;;;;5032107;28;4607;-60
2023/10/13 04:31:56;;;;;;;;;;;;;;;;;;5015131;28;4456;-60
2023/10/13 04:34:27;;;;;;;;;;;;;;;;;;5032439;28;5052;-60
2023/10/13 04:37:10;;;;;;;;;;;;;;;;;;5016585;28;4526;-60
2023/10/13 04:39:39;;;;;;;;;;;;;;;;;;5021843;28;4518;-60
2023/10/13 04:42:26;;;;;;;;;;;;;;;;;;5029337;28;4608;-60
2023/10/13 04:44:56;;;;;;;;;;;;;;;;;;5035863;28;5215;-61
2023/10/13 04:50:34;;;;;;;;;;;;;;;;;;5036048;28;5044;-61
2023/10/13 05:02:43;;;;;;;;;;;;;;;;;;5028854;28;4728;-60
2023/10/13 05:51:58;;;;;;;;;;;;;;;;;;5017025;28;5111;-56
2023/10/13 06:41:00;;;;;;;;;;;;;;;;;;5030015;28;4578;-57
2023/10/13 06:52:46;;;;;;;;;;;;;;;;;;5028970;28;5099;-57
2023/10/13 06:55:17;;;;;;;;;;;;;;;;;;5007502;28;5046;-57
2023/10/13 06:57:43;;;;;;;;;;;;;;;;;;5014278;28;5089;-57
2023/10/13 07:00:19;;;;;;;;;;;;;;;;;;5013971;28;5012;-57
2023/10/13 07:02:44;;;;;;;;;;;;;;;;;;5011772;28;4564;-57
2023/10/13 07:05:11;;;;;;;;;;;;;;;;;;5013363;28;1989;-57
2023/10/13 07:07:38;;;;;;;;;;;;;;;;;;5021092;28;4992;-58
2023/10/13 07:10:07;;;;;;;;;;;;;;;;;;5032161;28;5053;-57
2023/10/13 07:12:33;;;;;;;;;;;;;;;;;;5009330;28;4921;-57
2023/10/13 07:24:01;;;;;;;;;;;;;;;;;;5030906;28;5024;-56
2023/10/13 07:26:26;;;;;;;;;;;;;;;;;;5018985;28;5017;-58
2023/10/13 07:28:52;;;;;;;;;;;;;;;;;;5020780;28;2554;-57
2023/10/13 07:31:20;;;;;;;;;;;;;;;;;;5031361;28;5091;-58
2023/10/13 07:33:45;;;;;;;;;;;;;;;;;;5026154;28;4883;-58
2023/10/13 07:36:59;;;;;;;;;;;;;;;;;;5035660;28;5095;-56
2023/10/13 07:41:41;;;;;;;;;;;;;;;;;;5034511;28;5217;-57
2023/10/13 07:44:13;;;;;;;;;;;;;;;;;;5029876;28;1330;-56
2023/10/13 07:46:38;;;;;;;;;;;;;;;;;;5021204;28;5258;-56
2023/10/13 07:49:10;;;;;;;;;;;;;;;;;;5033060;28;5781;-56
2023/10/13 07:55:21;;;;;;;;;;;;;;;;;;5014216;28;5214;-56
2023/10/13 07:57:59;;;;;;;;;;;;;;;;;;5021788;28;4964;-56
2023/10/13 08:03:46;;;;;;;;;;;;;;;;;;5033351;28;5222;-60
2023/10/13 08:08:40;;;;;;;;;;;;;;;;;;5023475;28;5128;-57
2023/10/13 08:11:24;;;;;;;;;;;;;;;;;;5062001;28;1240;-57
2023/10/13 08:13:53;;;;;;;;;;;;;;;;;;5034714;28;4958;-57
2023/10/13 08:16:22;;;;;;;;;;;;;;;;;;5031449;28;5009;-57
2023/10/13 08:18:50;;;;;;;;;;;;;;;;;;5049171;28;6057;-56
2023/10/13 08:21:22;;;;;;;;;;;;;;;;;;5038633;28;5065;-57
2023/10/13 08:31:49;;;;;;;;;;;;;;;;;;5034774;28;4545;-57
2023/10/13 08:34:22;;;;;;;;;;;;;;;;;;5035937;28;4820;-56
2023/10/13 08:36:48;;;;;;;;;;;;;;;;;;5034157;28;5189;-57
2023/10/13 08:48:31;;;;;;;;;;;;;;;;;;5029308;28;5822;-58
2023/10/13 08:57:32;;;;;;;;;;;;;;;;;;5015818;28;5261;-58
2023/10/13 09:00:26;;;;;;;;;;;;;;;;;;5019941;28;4961;-58
2023/10/13 09:05:42;;;;;;;;;;;;;;;;;;5031927;28;5150;-58
2023/10/13 09:08:34;;;;;;;;;;;;;;;;;;5020802;28;994;-58
2023/10/13 09:17:11;;;;;;;;;;;;;;;;;;4985100;28;4622;-58
2023/10/13 09:25:58;;;;;;;;;;;;;;;;;;5011800;28;4978;-60
2023/10/13 09:28:44;;;;;;;;;;;;;;;;;;5000110;28;5040;-58
2023/10/13 09:31:40;;;;;;;;;;;;;;;;;;5001389;28;5006;-58
2023/10/13 09:40:38;;;;;;;;;;;;;;;;;;5014899;28;5128;-58
2023/10/13 09:55:34;;;;;;;;;;;;;;;;;;5010595;28;4622;-58
2023/10/13 10:04:08;;;;;;;;;;;;;;;;;;5003131;28;4630;-59
2023/10/13 10:09:37;;;;;;;;;;;;;;;;;;5000786;28;5100;-56
2023/10/13 10:12:03;;;;;;;;;;;;;;;;;;5015080;28;5008;-53
2023/10/13 10:14:31;;;;;;;;;;;;;;;;;;5011012;28;4670;-55
2023/10/13 10:26:33;;;;;;;;;;;;;;;;;;5031148;28;4735;-56
2023/10/13 10:29:01;;;;;;;;;;;;;;;;;;5006513;28;4786;-56
2023/10/13 10:31:34;;;;;;;;;;;;;;;;;;5023733;28;5198;-55
2023/10/13 10:40:08;;;;;;;;;;;;;;;;;;5016303;28;5002;-56
2023/10/13 10:43:03;;;;;;;;;;;;;;;;;;5005375;28;5245;-54
2023/10/13 10:45:34;;;;;;;;;;;;;;;;;;5022819;28;4864;-60
2023/10/13 10:47:59;;;;;;;;;;;;;;;;;;5024678;28;5000;-61
2023/10/13 10:50:32;;;;;;;;;;;;;;;;;;5031633;28;5088;-62
2023/10/13 10:56:08;;;;;;;;;;;;;;;;;;5008821;28;4753;-61
2023/10/13 10:58:43;;;;;;;;;;;;;;;;;;5013641;28;5189;-63
2023/10/13 11:01:10;;;;;;;;;;;;;;;;;;5027856;28;4904;-66
2023/10/13 11:03:37;;;;;;;;;;;;;;;;;;5030485;28;5098;-67
2023/10/13 11:06:04;;;;;;;;;;;;;;;;;;5021935;28;4677;-68
2023/10/13 11:08:32;;;;;;;;;;;;;;;;;;5015817;28;5052;-68
2023/10/13 11:11:00;;;;;;;;;;;;;;;;;;5054473;28;1179;-68
2023/10/13 11:13:30;;;;;;;;;;;;;;;;;;5053533;28;4984;-67
2023/10/13 11:15:57;;;;;;;;;;;;;;;;;;5029386;28;4650;-67
2023/10/13 11:21:29;;;;;;;;;;;;;;;;;;5013672;28;4952;-68
2023/10/13 11:23:58;;;;;;;;;;;;;;;;;;5016558;28;4551;-66
2023/10/13 11:26:33;;;;;;;;;;;;;;;;;;5022977;28;4986;-66
2023/10/13 11:28:58;;;;;;;;;;;;;;;;;;5019731;28;1362;-67
2023/10/13 11:31:24;;;;;;;;;;;;;;;;;;5019966;28;4832;-68
2023/10/13 11:33:50;;;;;;;;;;;;;;;;;;5023230;28;4626;-68
2023/10/13 11:36:31;;;;;;;;;;;;;;;;;;5021284;28;5128;-67
2023/10/13 11:38:57;;;;;;;;;;;;;;;;;;5011101;28;4954;-67
2023/10/13 11:41:23;;;;;;;;;;;;;;;;;;5026018;28;4986;-67
2023/10/13 11:49:08;;;;;;;;;;;;;;;;;;5019239;28;4632;-68
2023/10/13 11:51:33;;;;;;;;;;;;;;;;;;5016073;28;5243;-71
2023/10/13 11:54:21;;;;;;;;;;;;;;;;;;5029683;28;5029;-65
2023/10/13 12:05:49;;;;;;;;;;;;;;;;;;5023413;28;4997;-66
2023/10/13 12:08:21;;;;;;;;;;;;;;;;;;5021893;28;3129;-62
2023/10/13 12:10:59;;;;;;;;;;;;;;;;;;5014698;28;5125;-65
2023/10/13 12:13:24;;;;;;;;;;;;;;;;;;5035567;28;5068;-65
2023/10/13 12:15:52;;;;;;;;;;;;;;;;;;5040891;28;5104;-56
2023/10/13 12:18:19;;;;;;;;;;;;;;;;;;5038573;28;4778;-56
2023/10/13 12:20:45;;;;;;;;;;;;;;;;;;5040883;28;5169;-57
2023/10/13 12:23:15;;;;;;;;;;;;;;;;;;5046975;28;1174;-58
2023/10/13 12:26:06;;;;;;;;;;;;;;;;;;5034666;28;4586;-56
2023/10/13 12:48:58;;;;;;;;;;;;;;;;;;5032628;28;4801;-56
2023/10/13 13:00:23;;;;;;;;;;;;;;;;;;5031983;28;5041;-56
2023/10/13 13:02:52;;;;;;;;;;;;;;;;;;5017832;28;4626;-56
2023/10/13 13:11:48;;;;;;;;;;;;;;;;;;5036340;28;563;-56
2023/10/13 13:14:47;;;;;;;;;;;;;;;;;;5034637;28;1126;-56
2023/10/13 13:23:17;;;;;;;;;;;;;;;;;;5016236;28;666;-56
2023/10/13 13:25:47;;;;;;;;;;;;;;;;;;5022477;28;5053;-56
2023/10/13 13:28:14;;;;;;;;;;;;;;;;;;5030429;28;4562;-56
2023/10/13 13:30:43;;;;;;;;;;;;;;;;;;5035147;28;4598;-56
2023/10/13 13:33:43;;;;;;;;;;;;;;;;;;5024419;28;4913;-56
2023/10/13 13:36:13;;;;;;;;;;;;;;;;;;5015297;28;5070;-56
2023/10/13 13:38:54;;;;;;;;;;;;;;;;;;5034849;28;4381;-56
2023/10/13 13:41:19;;;;;;;;;;;;;;;;;;5025403;28;5029;-55
2023/10/13 13:43:54;;;;;;;;;;;;;;;;;;5030559;28;1100;-56
2023/10/13 13:46:24;;;;;;;;;;;;;;;;;;5028804;28;4978;-56
2023/10/13 13:48:51;;;;;;;;;;;;;;;;;;5013261;28;4420;-56
2023/10/13 13:51:19;;;;;;;;;;;;;;;;;;5033405;28;5131;-56
2023/10/13 13:53:45;;;;;;;;;;;;;;;;;;5031854;28;5051;-57
2023/10/13 13:56:18;;;;;;;;;;;;;;;;;;5043962;28;1923;-56
2023/10/13 13:58:43;;;;;;;;;;;;;;;;;;5028279;28;5024;-56
2023/10/13 14:04:31;;;;;;;;;;;;;;;;;;5022472;28;5089;-57
2023/10/13 14:06:56;;;;;;;;;;;;;;;;;;5028013;28;5162;-57
2023/10/13 14:09:32;;;;;;;;;;;;;;;;;;5031826;28;4431;-56
2023/10/13 14:15:01;;;;;;;;;;;;;;;;;;5031009;28;5094;-56
2023/10/13 14:17:29;;;;;;;;;;;;;;;;;;5034671;28;5018;-56
2023/10/13 14:19:57;;;;;;;;;;;;;;;;;;5032821;28;1097;-57
2023/10/13 14:22:24;;;;;;;;;;;;;;;;;;5028087;28;5020;-57
2023/10/13 14:24:54;;;;;;;;;;;;;;;;;;5022221;28;4443;-57
2023/10/13 14:27:21;;;;;;;;;;;;;;;;;;5030170;28;5268;-57
2023/10/13 14:29:57;;;;;;;;;;;;;;;;;;5029990;28;4983;-57
2023/10/13 14:32:24;;;;;;;;;;;;;;;;;;5024349;28;4624;-58
2023/10/13 14:34:54;;;;;;;;;;;;;;;;;;5014815;28;1046;-58
2023/10/13 14:37:26;;;;;;;;;;;;;;;;;;5030841;28;5107;-58
2023/10/13 14:39:51;;;;;;;;;;;;;;;;;;5029695;28;5233;-59
2023/10/13 14:42:22;;;;;;;;;;;;;;;;;;5011645;28;4943;-58
2023/10/13 14:44:55;;;;;;;;;;;;;;;;;;5030159;28;5200;-59
2023/10/13 14:47:24;;;;;;;;;;;;;;;;;;5034047;28;4692;-58
2023/10/13 14:49:50;;;;;;;;;;;;;;;;;;5034371;28;1180;-67
2023/10/13 14:55:21;;;;;;;;;;;;;;;;;;5033972;28;5082;-57
2023/10/13 15:00:49;;;;;;;;;;;;;;;;;;5035444;28;4948;-60
2023/10/13 15:09:34;;;;;;;;;;;;;;;;;;5014117;28;4534;-55
2023/10/13 15:18:05;;;;;;;;;;;;;;;;;;5027549;28;5158;-54
2023/10/13 15:20:30;;;;;;;;;;;;;;;;;;5036776;28;5112;-54
2023/10/13 15:22:59;;;;;;;;;;;;;;;;;;5030030;28;2491;-54
2023/10/13 15:28:55;;;;;;;;;;;;;;;;;;5045023;28;4981;-53
2023/10/13 15:34:23;;;;;;;;;;;;;;;;;;5013687;28;4540;-53
2023/10/13 15:36:52;;;;;;;;;;;;;;;;;;5018799;28;2015;-54
2023/10/13 15:39:23;;;;;;;;;;;;;;;;;;5030716;28;5254;-54
2023/10/13 15:41:52;;;;;;;;;;;;;;;;;;5037814;28;1330;-53
2023/10/13 15:44:19;;;;;;;;;;;;;;;;;;5035551;28;5696;-53
2023/10/13 15:46:48;;;;;;;;;;;;;;;;;;5031308;28;2741;-53
2023/10/13 15:49:14;;;;;;;;;;;;;;;;;;5017024;28;5041;-54
2023/10/13 15:54:42;;;;;;;;;;;;;;;;;;5037810;28;4696;-56
2023/10/13 16:03:27;;;;;;;;;;;;;;;;;;5002015;28;5083;-55
2023/10/13 16:05:52;;;;;;;;;;;;;;;;;;5012230;28;4869;-54
2023/10/13 16:08:18;;;;;;;;;;;;;;;;;;5017524;28;5117;-55
2023/10/13 16:10:44;;;;;;;;;;;;;;;;;;5020899;28;5137;-57
2023/10/13 16:13:15;;;;;;;;;;;;;;;;;;5028020;28;4683;-54
2023/10/13 16:15:42;;;;;;;;;;;;;;;;;;5018599;28;3106;-57
2023/10/13 16:18:07;;;;;;;;;;;;;;;;;;5020077;28;5437;-57
2023/10/13 16:20:33;;;;;;;;;;;;;;;;;;5018472;28;4982;-58
2023/10/13 16:23:10;;;;;;;;;;;;;;;;;;5040230;28;4505;-58
2023/10/13 16:25:36;;;;;;;;;;;;;;;;;;5023186;28;5127;-58
2023/10/13 16:31:03;;;;;;;;;;;;;;;;;;5016290;28;4870;-57
2023/10/13 16:33:44;;;;;;;;;;;;;;;;;;5023453;28;1195;-59
2023/10/13 16:36:10;;;;;;;;;;;;;;;;;;5029234;28;4966;-58
2023/10/13 16:38:35;;;;;;;;;;;;;;;;;;5026204;28;4933;-58
2023/10/13 16:41:05;;;;;;;;;;;;;;;;;;5034170;28;5048;-57
2023/10/13 16:43:34;;;;;;;;;;;;;;;;;;5013259;28;5083;-58
2023/10/13 16:46:07;;;;;;;;;;;;;;;;;;5029565;28;4552;-57
2023/10/13 16:48:33;;;;;;;;;;;;;;;;;;5017793;28;2502;-57
2023/10/13 16:51:05;;;;;;;;;;;;;;;;;;5022858;28;5107;-58
2023/10/13 16:53:36;;;;;;;;;;;;;;;;;;5026049;28;4872;-58
2023/10/13 16:56:07;;;;;;;;;;;;;;;;;;5019501;28;4485;-58
2023/10/13 16:58:33;;;;;;;;;;;;;;;;;;5015629;28;5079;-57
2023/10/13 17:01:03;;;;;;;;;;;;;;;;;;5031034;28;4929;-56
2023/10/13 17:03:31;;;;;;;;;;;;;;;;;;5010925;28;2798;-58
2023/10/13 17:06:10;;;;;;;;;;;;;;;;;;5020892;28;5244;-56
2023/10/13 17:08:40;;;;;;;;;;;;;;;;;;5038821;28;4502;-58
2023/10/13 17:11:21;;;;;;;;;;;;;;;;;;5028365;28;5026;-58
2023/10/13 17:13:48;;;;;;;;;;;;;;;;;;5010998;28;5086;-52
2023/10/13 17:16:14;;;;;;;;;;;;;;;;;;5037670;28;5171;-51
2023/10/13 17:18:40;;;;;;;;;;;;;;;;;;5017841;28;1225;-50
2023/10/13 17:21:37;;;;;;;;;;;;;;;;;;5013515;28;4619;-63
2023/10/13 17:24:11;;;;;;;;;;;;;;;;;;4995818;28;4979;-66
2023/10/13 17:26:36;;;;;;;;;;;;;;;;;;4991080;28;5021;-58
2023/10/13 17:29:08;;;;;;;;;;;;;;;;;;5003612;28;4509;-61
2023/10/13 17:31:34;;;;;;;;;;;;;;;;;;4997961;28;5347;-62
2023/10/13 17:33:59;;;;;;;;;;;;;;;;;;5003112;28;5114;-62
2023/10/13 17:36:29;;;;;;;;;;;;;;;;;;4986317;28;1279;-61
2023/10/13 17:38:54;;;;;;;;;;;;;;;;;;5022961;28;5256;-63
2023/10/13 17:41:20;;;;;;;;;;;;;;;;;;5006185;28;5189;-62
2023/10/13 17:43:46;;;;;;;;;;;;;;;;;;5005701;28;5164;-62
2023/10/13 17:46:12;;;;;;;;;;;;;;;;;;5006672;28;5072;-64
2023/10/13 17:48:37;;;;;;;;;;;;;;;;;;5009904;28;1625;-63
2023/10/13 17:51:08;;;;;;;;;;;;;;;;;;4992540;28;4441;-63
2023/10/13 17:53:34;;;;;;;;;;;;;;;;;;4976412;28;5015;-62
2023/10/13 17:56:12;;;;;;;;;;;;;;;;;;4989761;28;5061;-62
2023/10/13 17:58:41;;;;;;;;;;;;;;;;;;5004921;28;5115;-61
2023/10/13 18:01:07;;;;;;;;;;;;;;;;;;5005450;28;4748;-62
2023/10/13 18:03:33;;;;;;;;;;;;;;;;;;5017214;28;1113;-63
2023/10/13 18:05:59;;;;;;;;;;;;;;;;;;4995352;28;4681;-62
2023/10/13 18:08:27;;;;;;;;;;;;;;;;;;5006361;28;4873;-63
2023/10/13 18:10:53;;;;;;;;;;;;;;;;;;5012215;28;4956;-63
2023/10/13 18:13:18;;;;;;;;;;;;;;;;;;5002300;28;5092;-62
2023/10/13 18:15:43;;;;;;;;;;;;;;;;;;5002130;28;3067;-60
2023/10/13 18:18:08;;;;;;;;;;;;;;;;;;5000951;28;5005;-59
2023/10/13 18:20:54;;;;;;;;;;;;;;;;;;5006136;28;4904;-60
2023/10/13 18:23:20;;;;;;;;;;;;;;;;;;5031250;28;4884;-59
2023/10/13 18:25:53;;;;;;;;;;;;;;;;;;5030979;28;5128;-59
2023/10/13 18:28:22;;;;;;;;;;;;;;;;;;5020408;28;5165;-58
2023/10/13 18:36:49;;;;;;;;;;;;;;;;;;5054965;28;4736;-57
2023/10/13 18:45:19;;;;;;;;;;;;;;;;;;5015266;28;4632;-62
2023/10/13 18:47:45;;;;;;;;;;;;;;;;;;5014730;28;5049;-62
2023/10/13 18:50:10;;;;;;;;;;;;;;;;;;5013306;28;4973;-63
2023/10/13 18:52:36;;;;;;;;;;;;;;;;;;5014106;28;5002;-63
2023/10/13 18:58:07;;;;;;;;;;;;;;;;;;5010560;28;650;-63
2023/10/13 19:00:33;;;;;;;;;;;;;;;;;;5014450;28;1031;-63
2023/10/13 19:02:58;;;;;;;;;;;;;;;;;;5015030;28;1077;-63
2023/10/13 19:05:25;;;;;;;;;;;;;;;;;;5014246;28;1910;-63
2023/10/13 19:10:53;;;;;;;;;;;;;;;;;;5009082;28;599;-64
2023/10/13 19:13:26;;;;;;;;;;;;;;;;;;5016066;28;4935;-63
2023/10/13 19:16:12;;;;;;;;;;;;;;;;;;5018280;28;4994;-63
2023/10/13 19:18:37;;;;;;;;;;;;;;;;;;5009892;28;5117;-64
2023/10/13 19:21:03;;;;;;;;;;;;;;;;;;5016774;28;4605;-63
2023/10/13 19:23:29;;;;;;;;;;;;;;;;;;5017005;28;1036;-61
2023/10/13 19:26:17;;;;;;;;;;;;;;;;;;5028542;28;4474;-68
2023/10/13 19:28:43;;;;;;;;;;;;;;;;;;5033927;28;4614;-67
2023/10/13 19:31:09;;;;;;;;;;;;;;;;;;5035637;28;4963;-59
2023/10/13 19:33:35;;;;;;;;;;;;;;;;;;5036146;28;4560;-59
2023/10/13 19:36:04;;;;;;;;;;;;;;;;;;5037632;28;4956;-59
2023/10/13 19:44:52;;;;;;;;;;;;;;;;;;5057304;28;5113;-57
2023/10/13 19:47:18;;;;;;;;;;;;;;;;;;5044050;28;1095;-57
2023/10/13 19:49:45;;;;;;;;;;;;;;;;;;5037569;28;5097;-56
2023/10/13 19:52:10;;;;;;;;;;;;;;;;;;5037128;28;4706;-56
2023/10/13 19:57:38;;;;;;;;;;;;;;;;;;5037419;28;4455;-61
2023/10/13 20:03:08;;;;;;;;;;;;;;;;;;5037058;28;5009;-61
2023/10/13 20:08:37;;;;;;;;;;;;;;;;;;5036876;28;4931;-61
2023/10/13 20:11:02;;;;;;;;;;;;;;;;;;5037558;28;1216;-61
2023/10/13 20:13:28;;;;;;;;;;;;;;;;;;5035714;28;4865;-61
2023/10/13 20:15:53;;;;;;;;;;;;;;;;;;5036658;28;4798;-61
2023/10/13 20:21:35;;;;;;;;;;;;;;;;;;5036793;28;4852;-61
2023/10/13 20:24:00;;;;;;;;;;;;;;;;;;5036040;28;5020;-62
2023/10/13 20:26:27;;;;;;;;;;;;;;;;;;5037096;28;1972;-61
2023/10/13 20:28:52;;;;;;;;;;;;;;;;;;5036496;28;5438;-61
2023/10/13 20:34:23;;;;;;;;;;;;;;;;;;5036796;28;4963;-61
2023/10/13 20:36:48;;;;;;;;;;;;;;;;;;5036282;28;4974;-62
2023/10/13 20:39:23;;;;;;;;;;;;;;;;;;5036584;28;5001;-62
2023/10/13 20:41:51;;;;;;;;;;;;;;;;;;5036922;28;4968;-62
2023/10/13 20:47:20;;;;;;;;;;;;;;;;;;5037141;28;4731;-64
2023/10/13 20:49:46;;;;;;;;;;;;;;;;;;5036025;28;4913;-62
2023/10/13 20:52:12;;;;;;;;;;;;;;;;;;5051027;28;4455;-62
2023/10/13 20:54:37;;;;;;;;;;;;;;;;;;5036049;28;4590;-61
2023/10/13 20:57:07;;;;;;;;;;;;;;;;;;5035827;28;5010;-61
2023/10/13 20:59:38;;;;;;;;;;;;;;;;;;5051526;28;4934;-61
2023/10/13 21:02:04;;;;;;;;;;;;;;;;;;5036567;28;1286;-61
2023/10/13 21:04:30;;;;;;;;;;;;;;;;;;5035344;28;5026;-61
2023/10/13 21:09:58;;;;;;;;;;;;;;;;;;5035896;28;4995;-61
2023/10/13 21:12:23;;;;;;;;;;;;;;;;;;5035371;28;5063;-61
2023/10/13 21:14:49;;;;;;;;;;;;;;;;;;5035773;28;4975;-61
2023/10/13 21:17:14;;;;;;;;;;;;;;;;;;5035696;28;1436;-62
2023/10/13 21:19:39;;;;;;;;;;;;;;;;;;5036244;28;4780;-61
2023/10/13 21:22:08;;;;;;;;;;;;;;;;;;5035552;28;4991;-61
2023/10/13 21:24:39;;;;;;;;;;;;;;;;;;5035763;28;4974;-61
2023/10/13 21:27:04;;;;;;;;;;;;;;;;;;5035724;28;4969;-61
2023/10/13 21:29:29;;;;;;;;;;;;;;;;;;5035746;28;1195;-61
2023/10/13 21:31:55;;;;;;;;;;;;;;;;;;5035269;28;5021;-61
2023/10/13 21:34:21;;;;;;;;;;;;;;;;;;5035482;28;5084;-62
2023/10/13 21:36:47;;;;;;;;;;;;;;;;;;5034380;28;5098;-61
2023/10/13 21:42:15;;;;;;;;;;;;;;;;;;5035354;28;5011;-61
2023/10/13 21:44:42;;;;;;;;;;;;;;;;;;5035140;28;5019;-62
2023/10/13 21:47:08;;;;;;;;;;;;;;;;;;5035702;28;1961;-61
2023/10/13 21:49:33;;;;;;;;;;;;;;;;;;5034996;28;4788;-61
2023/10/13 21:55:01;;;;;;;;;;;;;;;;;;5035094;28;5017;-61
2023/10/13 21:57:26;;;;;;;;;;;;;;;;;;5034727;28;4866;-61
2023/10/13 21:59:51;;;;;;;;;;;;;;;;;;5034845;28;4582;-61
2023/10/13 22:02:17;;;;;;;;;;;;;;;;;;5035493;28;1221;-61
2023/10/13 22:04:43;;;;;;;;;;;;;;;;;;5033579;28;5075;-61
2023/10/13 22:10:16;;;;;;;;;;;;;;;;;;5035054;28;4538;-61
2023/10/13 22:12:42;;;;;;;;;;;;;;;;;;5049942;28;5051;-61
2023/10/13 22:15:08;;;;;;;;;;;;;;;;;;5033484;28;4969;-61
2023/10/13 22:17:33;;;;;;;;;;;;;;;;;;5034421;28;4421;-61
2023/10/13 22:19:58;;;;;;;;;;;;;;;;;;5033334;28;976;-61
2023/10/13 22:22:24;;;;;;;;;;;;;;;;;;5034342;28;5035;-61
2023/10/13 22:24:49;;;;;;;;;;;;;;;;;;5034546;28;4989;-61
2023/10/13 22:27:14;;;;;;;;;;;;;;;;;;5034281;28;5126;-61
2023/10/13 22:32:43;;;;;;;;;;;;;;;;;;5034542;28;5722;-62
2023/10/13 22:35:08;;;;;;;;;;;;;;;;;;5034636;28;1053;-61
2023/10/13 22:37:34;;;;;;;;;;;;;;;;;;5034188;28;4929;-61
2023/10/13 22:39:59;;;;;;;;;;;;;;;;;;5034663;28;4935;-61
2023/10/13 22:42:36;;;;;;;;;;;;;;;;;;5034346;28;4958;-61
2023/10/13 22:45:01;;;;;;;;;;;;;;;;;;5033994;28;4983;-61
2023/10/13 22:47:26;;;;;;;;;;;;;;;;;;5031724;28;1085;-61
2023/10/13 22:49:52;;;;;;;;;;;;;;;;;;5027061;28;5649;-61
2023/10/13 22:52:17;;;;;;;;;;;;;;;;;;5034101;28;5203;-61
2023/10/13 22:54:44;;;;;;;;;;;;;;;;;;5032930;28;5071;-61
2023/10/13 22:57:11;;;;;;;;;;;;;;;;;;5034109;28;4923;-61
2023/10/13 23:02:40;;;;;;;;;;;;;;;;;;5033950;28;4746;-61
2023/10/13 23:05:08;;;;;;;;;;;;;;;;;;5031425;28;1974;-61
2023/10/13 23:07:34;;;;;;;;;;;;;;;;;;5019813;28;5037;-61
2023/10/13 23:10:00;;;;;;;;;;;;;;;;;;5014266;28;5314;-61
2023/10/13 23:18:59;;;;;;;;;;;;;;;;;;5013816;28;5818;-61
2023/10/13 23:21:27;;;;;;;;;;;;;;;;;;5014268;28;5300;-61
2023/10/13 23:23:55;;;;;;;;;;;;;;;;;;4996337;28;4823;-61
2023/10/13 23:26:21;;;;;;;;;;;;;;;;;;5014838;28;1966;-61
2023/10/13 23:31:49;;;;;;;;;;;;;;;;;;5014284;28;5077;-61
2023/10/13 23:34:16;;;;;;;;;;;;;;;;;;5031990;28;4477;-62
2023/10/13 23:36:41;;;;;;;;;;;;;;;;;;5031493;28;5077;-61
2023/10/13 23:42:21;;;;;;;;;;;;;;;;;;5014253;28;4865;-61
2023/10/13 23:44:47;;;;;;;;;;;;;;;;;;5017177;28;5149;-61
2023/10/13 23:47:12;;;;;;;;;;;;;;;;;;5033952;28;1967;-61
2023/10/13 23:52:40;;;;;;;;;;;;;;;;;;5033571;28;4416;-62
2023/10/13 23:55:17;;;;;;;;;;;;;;;;;;5033110;28;4878;-62
2023/10/13 23:57:49;;;;;;;;;;;;;;;;;;5031506;28;4997;-61
